createdAt,value
2018-02-11T00:01:56.604Z,0.80
2018-02-11T00:04:24.231Z,0.80
2018-02-11T00:06:51.835Z,0.80
2018-02-11T00:09:19.427Z,0.80
2018-02-11T00:11:47.822Z,0.80
2018-02-11T00:14:16.168Z,0.80
2018-02-11T00:16:43.788Z,0.80
2018-02-11T00:19:11.380Z,0.80
2018-02-11T00:21:38.975Z,0.90
2018-02-11T00:24:07.344Z,0.90
2018-02-11T00:26:35.747Z,0.90
2018-02-11T00:29:03.372Z,0.90
2018-02-11T00:31:30.959Z,0.90
2018-02-11T00:33:58.561Z,0.90
2018-02-11T00:36:26.130Z,0.90
2018-02-11T00:38:53.734Z,0.90
2018-02-11T00:41:22.068Z,0.90
2018-02-11T00:43:49.704Z,0.80
2018-02-11T00:46:17.288Z,0.90
2018-02-11T00:48:44.902Z,0.80
2018-02-11T00:51:12.533Z,0.90
2018-02-11T00:53:40.182Z,0.90
2018-02-11T00:56:09.753Z,0.80
2018-02-11T00:58:37.332Z,0.80
2018-02-11T01:01:04.939Z,0.80
2018-02-11T01:03:32.528Z,0.80
2018-02-11T01:06:00.139Z,0.80
2018-02-11T01:08:27.694Z,0.80
2018-02-11T01:10:55.292Z,0.80
2018-02-11T01:13:22.883Z,0.80
2018-02-11T01:15:50.447Z,0.80
2018-02-11T01:18:18.067Z,0.80
2018-02-11T01:20:45.663Z,0.80
2018-02-11T01:23:13.254Z,0.80
2018-02-11T01:25:40.843Z,0.70
2018-02-11T01:28:09.206Z,0.70
2018-02-11T01:30:37.560Z,0.70
2018-02-11T01:33:05.187Z,0.70
2018-02-11T01:35:32.761Z,0.70
2018-02-11T01:38:00.378Z,0.70
2018-02-11T01:40:28.762Z,0.70
2018-02-11T01:42:56.361Z,0.70
2018-02-11T01:45:23.924Z,0.80
2018-02-11T01:47:51.576Z,0.80
2018-02-11T01:50:19.215Z,0.80
2018-02-11T01:52:46.846Z,0.80
2018-02-11T01:55:14.462Z,0.80
2018-02-11T01:57:42.066Z,0.80
2018-02-11T02:00:10.394Z,0.70
2018-02-11T02:02:37.980Z,0.70
2018-02-11T02:05:05.594Z,0.80
2018-02-11T02:07:33.142Z,0.90
2018-02-11T02:10:00.701Z,0.80
2018-02-11T02:12:28.276Z,0.80
2018-02-11T02:14:55.867Z,0.80
2018-02-11T02:17:23.474Z,0.80
2018-02-11T02:19:51.063Z,0.90
2018-02-11T02:22:18.658Z,0.90
2018-02-11T02:24:46.247Z,0.90
2018-02-11T02:27:14.603Z,0.90
2018-02-11T02:29:42.208Z,0.90
2018-02-11T02:32:09.823Z,0.90
2018-02-11T02:34:37.425Z,0.90
2018-02-11T02:37:05.792Z,1.00
2018-02-11T02:39:33.401Z,1.00
2018-02-11T02:42:01.024Z,1.00
2018-02-11T02:44:28.608Z,1.00
2018-02-11T02:46:56.191Z,1.10
2018-02-11T02:49:23.785Z,1.10
2018-02-11T02:51:52.140Z,1.10
2018-02-11T02:54:19.698Z,1.00
2018-02-11T02:56:47.302Z,1.10
2018-02-11T02:59:14.897Z,1.10
2018-02-11T03:01:42.496Z,1.10
2018-02-11T03:04:10.930Z,1.00
2018-02-11T03:06:38.485Z,1.00
2018-02-11T03:09:06.104Z,1.10
2018-02-11T03:11:33.713Z,1.00
2018-02-11T03:14:01.295Z,1.10
2018-02-11T03:16:28.847Z,1.10
2018-02-11T03:18:56.444Z,1.10
2018-02-11T03:21:24.810Z,1.10
2018-02-11T03:23:52.391Z,1.00
2018-02-11T03:26:19.998Z,1.10
2018-02-11T03:28:47.546Z,1.10
2018-02-11T03:31:15.153Z,1.10
2018-02-11T03:33:43.556Z,1.10
2018-02-11T03:36:11.146Z,1.10
2018-02-11T03:38:38.711Z,1.10
2018-02-11T03:41:06.327Z,1.10
2018-02-11T03:43:34.664Z,1.10
2018-02-11T03:46:02.271Z,1.10
2018-02-11T03:48:29.863Z,1.00
2018-02-11T03:50:57.427Z,1.00
2018-02-11T03:53:25.029Z,0.90
2018-02-11T03:55:53.404Z,0.80
2018-02-11T03:58:21.011Z,0.80
2018-02-11T04:00:48.595Z,0.80
2018-02-11T04:03:16.214Z,0.80
2018-02-11T04:05:43.808Z,0.80
2018-02-11T04:08:11.389Z,0.90
2018-02-11T04:10:38.978Z,0.90
2018-02-11T04:13:07.362Z,0.90
2018-02-11T04:15:35.698Z,0.90
2018-02-11T04:18:03.351Z,0.80
2018-02-11T04:20:30.902Z,0.80
2018-02-11T04:22:58.462Z,0.80
2018-02-11T04:25:26.061Z,0.80
2018-02-11T04:27:54.422Z,0.80
2018-02-11T04:30:22.039Z,0.70
2018-02-11T04:32:49.585Z,0.80
2018-02-11T04:35:17.138Z,0.70
2018-02-11T04:37:45.493Z,0.70
2018-02-11T04:40:13.112Z,0.70
2018-02-11T04:42:40.729Z,0.70
2018-02-11T04:45:08.351Z,0.70
2018-02-11T04:47:35.961Z,0.70
2018-02-11T04:50:03.546Z,0.70
2018-02-11T04:52:31.102Z,0.70
2018-02-11T04:54:58.688Z,0.70
2018-02-11T04:57:26.269Z,0.70
2018-02-11T04:59:53.879Z,0.70
2018-02-11T05:02:21.506Z,0.70
2018-02-11T05:04:49.861Z,0.70
2018-02-11T05:07:17.477Z,0.70
2018-02-11T05:09:45.094Z,0.70
2018-02-11T05:12:12.663Z,0.70
2018-02-11T05:14:40.258Z,0.70
2018-02-11T05:17:07.867Z,0.70
2018-02-11T05:19:35.447Z,0.70
2018-02-11T05:22:03.799Z,0.70
2018-02-11T05:24:31.366Z,0.70
2018-02-11T05:26:58.987Z,0.70
2018-02-11T05:29:27.316Z,0.70
2018-02-11T05:31:55.672Z,0.80
2018-02-11T05:34:23.231Z,0.80
2018-02-11T05:36:50.824Z,0.80
2018-02-11T05:39:19.162Z,0.90
2018-02-11T05:41:46.745Z,0.90
2018-02-11T05:44:14.375Z,0.90
2018-02-11T05:46:41.994Z,0.90
2018-02-11T05:49:09.586Z,0.90
2018-02-11T05:51:37.210Z,0.90
2018-02-11T05:54:04.803Z,0.90
2018-02-11T05:56:33.146Z,0.90
2018-02-11T05:59:00.726Z,0.90
2018-02-11T06:01:28.314Z,0.90
2018-02-11T06:07:13.981Z,0.90
2018-02-11T06:09:41.588Z,0.90
2018-02-11T06:12:09.185Z,0.90
2018-02-11T06:14:37.523Z,1.00
2018-02-11T06:17:05.103Z,1.00
2018-02-11T06:19:32.726Z,1.00
2018-02-11T06:22:01.319Z,1.00
2018-02-11T06:24:35.011Z,1.00
2018-02-11T06:27:04.556Z,1.00
2018-02-11T06:29:32.169Z,1.10
2018-02-11T06:31:59.780Z,1.10
2018-02-11T06:34:45.812Z,1.10
2018-02-11T06:37:13.411Z,1.10
2018-02-11T06:39:40.994Z,1.20
2018-02-11T06:42:13.076Z,1.20
2018-02-11T06:44:41.391Z,1.20
2018-02-11T06:47:09.023Z,1.20
2018-02-11T06:49:37.467Z,1.20
2018-02-11T06:52:05.074Z,1.20
2018-02-11T06:54:33.603Z,1.20
2018-02-11T06:57:01.206Z,1.30
2018-02-11T06:59:28.780Z,1.30
2018-02-11T07:01:56.365Z,1.30
2018-02-11T07:04:23.931Z,1.30
2018-02-11T07:06:57.454Z,1.40
2018-02-11T07:09:25.102Z,1.40
2018-02-11T07:11:52.725Z,1.40
2018-02-11T07:14:21.107Z,1.40
2018-02-11T07:16:49.627Z,1.40
2018-02-11T07:19:17.195Z,1.50
2018-02-11T07:22:10.516Z,1.60
2018-02-11T07:24:38.074Z,1.60
2018-02-11T07:27:05.692Z,1.70
2018-02-11T07:29:34.072Z,1.80
2018-02-11T07:32:02.431Z,1.90
2018-02-11T07:34:34.623Z,1.80
2018-02-11T07:37:03.005Z,2.10
2018-02-11T07:39:30.615Z,2.00
2018-02-11T07:41:58.207Z,2.10
2018-02-11T07:44:26.558Z,2.10
2018-02-11T07:46:54.144Z,2.10
2018-02-11T07:49:22.517Z,2.30
2018-02-11T07:52:05.197Z,2.30
2018-02-11T07:54:32.806Z,2.40
2018-02-11T07:57:01.138Z,2.50
2018-02-11T07:59:28.691Z,2.50
2018-02-11T08:01:56.282Z,2.30
2018-02-11T08:04:23.852Z,2.40
2018-02-11T08:06:51.437Z,2.60
2018-02-11T08:09:19.011Z,2.80
2018-02-11T08:11:46.615Z,2.90
2018-02-11T08:14:14.247Z,2.90
2018-02-11T08:16:41.799Z,3.10
2018-02-11T08:19:09.415Z,3.20
2018-02-11T08:21:37.755Z,3.20
2018-02-11T08:24:05.308Z,3.20
2018-02-11T08:26:32.942Z,3.30
2018-02-11T08:29:00.541Z,3.40
2018-02-11T08:31:28.114Z,3.80
2018-02-11T08:33:55.718Z,4.00
2018-02-11T08:36:23.280Z,4.10
2018-02-11T08:38:50.887Z,4.20
2018-02-11T08:41:18.484Z,4.20
2018-02-11T08:43:46.863Z,3.80
2018-02-11T08:46:14.501Z,3.80
2018-02-11T08:48:42.068Z,3.70
2018-02-11T08:51:09.658Z,3.70
2018-02-11T08:53:37.243Z,3.60
2018-02-11T08:56:04.778Z,3.70
2018-02-11T08:58:32.354Z,3.80
2018-02-11T09:00:59.910Z,3.90
2018-02-11T09:03:27.578Z,3.90
2018-02-11T09:05:55.134Z,3.90
2018-02-11T09:08:22.749Z,4.10
2018-02-11T09:10:50.323Z,4.00
2018-02-11T09:13:18.669Z,4.20
2018-02-11T09:15:46.220Z,4.10
2018-02-11T09:18:13.888Z,4.10
2018-02-11T09:20:41.524Z,3.80
2018-02-11T09:23:09.114Z,3.70
2018-02-11T09:25:36.713Z,3.80
2018-02-11T09:28:04.310Z,3.80
2018-02-11T09:30:31.936Z,3.90
2018-02-11T09:33:00.482Z,3.80
2018-02-11T09:35:28.079Z,3.70
2018-02-11T09:37:55.644Z,3.80
2018-02-11T09:40:23.262Z,3.70
2018-02-11T09:42:50.853Z,3.60
2018-02-11T09:45:18.451Z,3.60
2018-02-11T09:47:46.023Z,3.90
2018-02-11T09:50:13.579Z,3.90
2018-02-11T09:52:41.173Z,4.10
2018-02-11T09:55:09.518Z,4.10
2018-02-11T09:57:37.070Z,4.10
2018-02-11T10:00:04.679Z,4.30
2018-02-11T10:02:33.044Z,4.50
2018-02-11T10:05:00.658Z,4.50
2018-02-11T10:07:28.273Z,4.40
2018-02-11T10:09:56.643Z,4.30
2018-02-11T10:12:25.003Z,4.30
2018-02-11T10:14:52.612Z,4.30
2018-02-11T10:17:20.187Z,4.50
2018-02-11T10:19:47.787Z,4.50
2018-02-11T10:22:15.408Z,4.50
2018-02-11T10:24:43.064Z,4.30
2018-02-11T10:27:10.620Z,4.40
2018-02-11T10:29:38.471Z,4.40
2018-02-11T10:32:06.114Z,4.40
2018-02-11T10:34:34.495Z,4.30
2018-02-11T10:37:02.894Z,4.30
2018-02-11T10:39:30.466Z,4.30
2018-02-11T10:41:58.058Z,4.50
2018-02-11T10:44:25.677Z,4.90
2018-02-11T10:46:53.249Z,4.90
2018-02-11T10:49:20.864Z,5.10
2018-02-11T10:51:48.509Z,5.30
2018-02-11T10:54:16.143Z,6.00
2018-02-11T10:56:43.733Z,6.20
2018-02-11T10:59:11.340Z,6.50
2018-02-11T11:01:38.995Z,6.30
2018-02-11T11:04:06.586Z,6.50
2018-02-11T11:06:34.203Z,5.90
2018-02-11T11:09:02.558Z,5.70
2018-02-11T11:11:30.188Z,5.70
2018-02-11T11:13:57.764Z,5.50
2018-02-11T11:16:25.387Z,5.40
2018-02-11T11:18:52.958Z,5.40
2018-02-11T11:21:20.544Z,5.20
2018-02-11T11:23:48.138Z,5.30
2018-02-11T11:26:15.781Z,5.40
2018-02-11T11:28:43.329Z,5.40
2018-02-11T11:31:10.896Z,5.50
2018-02-11T11:33:38.463Z,5.20
2018-02-11T11:36:06.085Z,5.00
2018-02-11T11:38:33.699Z,4.80
2018-02-11T11:41:02.071Z,4.70
2018-02-11T11:43:30.433Z,4.60
2018-02-11T11:45:58.057Z,4.60
2018-02-11T11:48:25.638Z,4.40
2018-02-11T11:50:53.271Z,4.40
2018-02-11T11:53:20.882Z,4.50
2018-02-11T11:55:48.505Z,4.50
2018-02-11T11:58:16.129Z,4.40
2018-02-11T12:00:43.767Z,4.30
2018-02-11T12:03:11.374Z,4.10
2018-02-11T12:05:38.983Z,4.00
2018-02-11T12:08:06.588Z,4.00
2018-02-11T12:10:34.226Z,4.00
2018-02-11T12:13:02.564Z,3.90
2018-02-11T12:15:30.177Z,3.80
2018-02-11T12:17:57.771Z,3.80
2018-02-11T12:20:25.367Z,3.90
2018-02-11T12:22:53.759Z,3.80
2018-02-11T12:25:22.131Z,3.80
2018-02-11T12:27:50.507Z,3.90
2018-02-11T12:30:18.865Z,4.00
2018-02-11T12:32:46.479Z,4.00
2018-02-11T12:35:14.103Z,4.10
2018-02-11T12:37:41.683Z,4.10
2018-02-11T12:40:09.284Z,4.10
2018-02-11T12:42:36.857Z,4.10
2018-02-11T12:45:04.488Z,4.10
2018-02-11T12:47:32.080Z,4.10
2018-02-11T12:49:59.693Z,4.20
2018-02-11T12:52:27.253Z,4.20
2018-02-11T12:54:54.858Z,4.20
2018-02-11T12:57:22.406Z,4.20
2018-02-11T12:59:50.026Z,4.30
2018-02-11T13:02:17.613Z,4.40
2018-02-11T13:04:45.208Z,4.50
2018-02-11T13:07:12.797Z,4.40
2018-02-11T13:09:41.180Z,4.30
2018-02-11T13:12:08.780Z,4.30
2018-02-11T13:14:36.345Z,4.30
2018-02-11T13:17:03.963Z,4.50
2018-02-11T13:19:32.294Z,4.50
2018-02-11T13:21:59.916Z,4.50
2018-02-11T13:24:27.495Z,4.50
2018-02-11T13:26:55.060Z,4.40
2018-02-11T13:29:22.681Z,4.40
2018-02-11T13:31:50.709Z,4.60
2018-02-11T13:34:18.325Z,4.60
2018-02-11T13:36:45.924Z,4.50
2018-02-11T13:39:13.548Z,4.60
2018-02-11T13:41:41.108Z,4.50
2018-02-11T13:44:14.742Z,4.50
2018-02-11T13:46:42.343Z,4.60
2018-02-11T13:49:10.732Z,4.60
2018-02-11T13:51:38.322Z,4.60
2018-02-11T13:54:05.939Z,4.60
2018-02-11T13:56:34.303Z,4.60
2018-02-11T13:59:01.922Z,4.60
2018-02-11T14:01:29.555Z,4.60
2018-02-11T14:03:57.982Z,4.70
2018-02-11T14:06:25.546Z,4.70
2018-02-11T14:08:53.164Z,4.80
2018-02-11T14:11:20.782Z,4.60
2018-02-11T14:13:48.396Z,4.70
2018-02-11T14:16:16.002Z,4.50
2018-02-11T14:18:43.639Z,4.40
2018-02-11T14:21:11.241Z,4.50
2018-02-11T14:23:39.622Z,4.70
2018-02-11T14:26:07.972Z,4.80
2018-02-11T14:28:35.509Z,4.80
2018-02-11T14:31:03.146Z,4.90
2018-02-11T14:33:30.734Z,4.90
2018-02-11T14:35:58.294Z,4.90
2018-02-11T14:38:25.924Z,4.80
2018-02-11T14:40:53.524Z,4.80
2018-02-11T14:43:21.157Z,4.80
2018-02-11T14:45:48.743Z,4.80
2018-02-11T14:48:16.324Z,4.70
2018-02-11T14:50:45.865Z,4.70
2018-02-11T14:53:13.500Z,4.60
2018-02-11T14:55:41.862Z,4.60
2018-02-11T14:58:09.484Z,4.60
2018-02-11T15:00:38.043Z,4.70
2018-02-11T15:03:05.613Z,4.70
2018-02-11T15:05:33.175Z,4.60
2018-02-11T15:08:00.766Z,4.50
2018-02-11T15:10:28.369Z,4.50
2018-02-11T15:12:56.754Z,4.50
2018-02-11T15:15:25.125Z,4.50
2018-02-11T15:17:53.479Z,4.60
2018-02-11T15:20:21.083Z,4.50
2018-02-11T15:22:48.711Z,4.60
2018-02-11T15:25:16.271Z,4.60
2018-02-11T15:27:43.847Z,4.60
2018-02-11T15:30:12.203Z,4.70
2018-02-11T15:32:39.807Z,4.70
2018-02-11T15:35:07.391Z,4.60
2018-02-11T15:37:35.035Z,4.60
2018-02-11T15:40:02.610Z,4.60
2018-02-11T15:42:30.182Z,4.60
2018-02-11T15:44:57.817Z,4.50
2018-02-11T15:47:25.403Z,4.40
2018-02-11T15:49:53.006Z,4.50
2018-02-11T15:52:21.378Z,4.20
2018-02-11T15:54:49.753Z,4.10
2018-02-11T15:57:18.133Z,4.10
2018-02-11T15:59:45.706Z,4.00
2018-02-11T16:02:13.314Z,4.10
2018-02-11T16:04:41.914Z,4.10
2018-02-11T16:07:09.490Z,3.90
2018-02-11T16:09:37.857Z,3.90
2018-02-11T16:12:05.476Z,3.90
2018-02-11T16:14:52.661Z,3.90
2018-02-11T16:17:32.252Z,3.80
2018-02-11T16:19:59.813Z,3.80
2018-02-11T16:22:27.411Z,3.80
2018-02-11T16:24:55.004Z,3.80
2018-02-11T16:27:22.628Z,3.80
2018-02-11T16:29:50.200Z,3.80
2018-02-11T16:32:18.567Z,3.70
2018-02-11T16:34:46.177Z,3.70
2018-02-11T16:37:14.018Z,3.70
2018-02-11T16:39:41.335Z,3.70
2018-02-11T16:42:08.933Z,3.70
2018-02-11T16:44:36.473Z,3.60
2018-02-11T16:47:04.863Z,3.60
2018-02-11T16:49:33.211Z,3.60
2018-02-11T16:52:00.790Z,3.60
2018-02-11T16:54:29.176Z,3.50
2018-02-11T16:56:56.782Z,3.50
2018-02-11T16:59:24.403Z,3.50
2018-02-11T17:01:51.957Z,3.50
2018-02-11T17:04:20.341Z,3.40
2018-02-11T17:06:47.957Z,3.40
2018-02-11T17:09:15.543Z,3.40
2018-02-11T17:11:43.896Z,3.40
2018-02-11T17:14:11.488Z,3.40
2018-02-11T17:16:39.859Z,3.40
2018-02-11T17:19:08.223Z,3.30
2018-02-11T17:21:39.574Z,3.30
2018-02-11T17:24:07.167Z,3.40
2018-02-11T17:26:34.747Z,3.40
2018-02-11T17:29:02.338Z,3.40
2018-02-11T17:31:29.994Z,3.40
2018-02-11T17:33:57.619Z,3.40
2018-02-11T17:36:25.225Z,3.40
2018-02-11T17:38:52.822Z,3.30
2018-02-11T17:41:21.144Z,3.30
2018-02-11T17:43:48.743Z,3.20
2018-02-11T17:46:17.103Z,3.20
2018-02-11T17:48:44.699Z,3.20
2018-02-11T17:51:12.322Z,3.20
2018-02-11T17:53:39.935Z,3.10
2018-02-11T17:56:07.526Z,3.10
2018-02-11T17:58:35.205Z,3.00
2018-02-11T18:01:02.771Z,2.90
2018-02-11T18:03:30.382Z,2.80
2018-02-11T18:05:57.982Z,2.80
2018-02-11T18:08:25.579Z,2.80
2018-02-11T18:10:53.920Z,2.70
2018-02-11T18:13:21.545Z,2.70
2018-02-11T18:15:49.130Z,2.70
2018-02-11T18:18:19.992Z,2.70
2018-02-11T18:20:47.566Z,2.60
2018-02-11T18:23:15.937Z,2.60
2018-02-11T18:25:44.270Z,2.60
2018-02-11T18:28:11.833Z,2.60
2018-02-11T18:30:39.393Z,2.60
2018-02-11T18:33:07.006Z,2.70
2018-02-11T18:35:34.622Z,2.70
2018-02-11T18:38:02.242Z,2.70
2018-02-11T18:40:29.835Z,2.70
2018-02-11T18:42:57.426Z,2.70
2018-02-11T18:45:25.035Z,2.60
2018-02-11T18:47:52.614Z,2.50
2018-02-11T18:50:28.035Z,2.40
2018-02-11T18:52:55.640Z,2.40
2018-02-11T18:55:23.202Z,2.30
2018-02-11T18:57:50.815Z,2.20
2018-02-11T19:00:18.434Z,2.20
2018-02-11T19:02:46.012Z,2.20
2018-02-11T19:05:13.626Z,2.20
2018-02-11T19:07:57.754Z,2.10
2018-02-11T19:10:25.334Z,2.10
2018-02-11T19:12:52.878Z,2.00
2018-02-11T19:15:20.544Z,2.00
2018-02-11T19:17:48.100Z,2.00
2018-02-11T19:20:15.733Z,2.00
2018-02-11T19:22:43.342Z,2.10
2018-02-11T19:25:10.909Z,2.00
2018-02-11T19:27:38.516Z,2.10
2018-02-11T19:30:06.116Z,2.10
2018-02-11T19:32:33.726Z,2.00
2018-02-11T19:35:01.338Z,2.00
2018-02-11T19:37:28.954Z,2.00
2018-02-11T19:40:07.011Z,2.00
2018-02-11T19:42:34.599Z,1.90
2018-02-11T19:45:02.938Z,1.90
2018-02-11T19:47:30.580Z,1.90
2018-02-11T19:49:58.195Z,2.00
2018-02-11T19:52:26.559Z,2.00
2018-02-11T19:54:54.227Z,2.00
2018-02-11T19:57:21.791Z,2.10
2018-02-11T19:59:50.188Z,2.10
2018-02-11T20:02:17.757Z,2.10
2018-02-11T20:04:45.359Z,2.10
2018-02-11T20:07:13.002Z,2.20
2018-02-11T20:09:40.639Z,2.30
2018-02-11T20:12:08.245Z,2.30
2018-02-11T20:14:35.823Z,2.30
2018-02-11T20:17:03.483Z,2.30
2018-02-11T20:19:31.046Z,2.30
2018-02-11T20:22:01.686Z,2.30
2018-02-11T20:24:29.290Z,2.30
2018-02-11T20:26:56.906Z,2.30
2018-02-11T20:29:24.496Z,2.30
2018-02-11T20:31:52.043Z,2.20
2018-02-11T20:34:20.413Z,2.20
2018-02-11T20:36:48.763Z,2.20
2018-02-11T20:39:16.384Z,2.20
2018-02-11T20:41:44.004Z,2.10
2018-02-11T20:44:12.366Z,2.10
2018-02-11T20:46:45.317Z,2.10
2018-02-11T20:49:12.943Z,2.10
2018-02-11T20:51:41.280Z,2.20
2018-02-11T20:54:08.896Z,2.10
2018-02-11T20:56:36.478Z,2.10
2018-02-11T20:59:04.103Z,2.10
2018-02-11T21:01:32.443Z,2.10
2018-02-11T21:04:00.006Z,2.10
2018-02-11T21:06:27.605Z,2.20
2018-02-11T21:08:55.214Z,2.20
2018-02-11T21:11:22.829Z,2.20
2018-02-11T21:13:50.451Z,2.20
2018-02-11T21:16:18.085Z,2.20
2018-02-11T21:18:45.654Z,2.20
2018-02-11T21:21:13.284Z,2.20
2018-02-11T21:23:40.883Z,2.20
2018-02-11T21:26:08.501Z,2.20
2018-02-11T21:28:36.060Z,2.20
2018-02-11T21:31:03.677Z,2.20
2018-02-11T21:33:31.254Z,2.10
2018-02-11T21:35:59.654Z,2.10
2018-02-11T21:38:27.250Z,2.10
2018-02-11T21:40:54.851Z,2.20
2018-02-11T21:43:23.219Z,2.20
2018-02-11T21:45:50.830Z,2.10
2018-02-11T21:48:19.230Z,2.10
2018-02-11T21:50:46.856Z,2.10
2018-02-11T21:53:14.438Z,2.10
2018-02-11T21:55:41.995Z,2.00
2018-02-11T21:58:09.607Z,2.00
2018-02-11T22:00:37.182Z,1.90
2018-02-11T22:03:04.750Z,1.90
2018-02-11T22:05:32.346Z,1.80
2018-02-11T22:08:00.023Z,1.80
2018-02-11T22:10:27.630Z,1.80
2018-02-11T22:12:55.195Z,1.80
2018-02-11T22:15:22.750Z,1.70
2018-02-11T22:17:50.362Z,1.60
2018-02-11T22:20:17.988Z,1.50
2018-02-11T22:22:45.610Z,1.50
2018-02-11T22:25:13.984Z,1.50
2018-02-11T22:27:42.307Z,1.50
2018-02-11T22:30:09.932Z,1.40
2018-02-11T22:32:38.341Z,1.40
2018-02-11T22:35:05.966Z,1.40
2018-02-11T22:37:34.357Z,1.40
2018-02-11T22:40:01.976Z,1.40
2018-02-11T22:42:29.567Z,1.40
2018-02-11T22:44:58.011Z,1.40
2018-02-11T22:47:25.586Z,1.40
2018-02-11T22:49:53.132Z,1.40
2018-02-11T22:52:20.709Z,1.40
2018-02-11T22:54:48.278Z,1.30
2018-02-11T22:57:16.646Z,1.20
2018-02-11T22:59:44.255Z,1.20
2018-02-11T23:02:11.827Z,1.20
2018-02-11T23:04:39.409Z,1.20
2018-02-11T23:07:07.003Z,1.20
2018-02-11T23:09:35.396Z,1.30
2018-02-11T23:12:03.001Z,1.30
2018-02-11T23:14:30.610Z,1.20
2018-02-11T23:16:58.970Z,1.20
2018-02-11T23:19:38.346Z,1.20
2018-02-11T23:22:05.938Z,1.20
2018-02-11T23:24:33.546Z,1.30
2018-02-11T23:27:01.127Z,1.40
2018-02-11T23:29:28.681Z,1.30
2018-02-11T23:31:56.229Z,1.40
2018-02-11T23:34:23.840Z,1.30
2018-02-11T23:36:51.413Z,1.40
2018-02-11T23:39:18.997Z,1.40
2018-02-11T23:41:46.622Z,1.40
2018-02-11T23:44:14.216Z,1.50
2018-02-11T23:46:42.563Z,1.40
2018-02-11T23:49:10.134Z,1.40
2018-02-11T23:51:37.738Z,1.40
2018-02-11T23:54:05.339Z,1.40
2018-02-11T23:56:32.933Z,1.40
2018-02-11T23:59:01.277Z,1.60
